Time;durP1;ratioP1;P1;durP2;ratioP2;P2;SDS_P1;SDS_P2;PMS_P1;PMS_P2;Temp;Humidity;BMP_temperature;BMP_pressure;BME280_temperature;BME280_humidity;BME280_pressure;Samples;Min_cycle;Max_cycle;Signal;HPM_P1;HPM_P2
2023/05/15 00:02:57;;;;;;;93.03;47.07;;;;;9.60;101086.00;;;;9779355;29;20234;-80
2023/05/15 00:07:58;;;;;;;92.50;48.77;;;;;9.60;101093.00;;;;9799342;29;20228;-83
2023/05/15 00:13:00;;;;;;;101.10;51.40;;;;;9.60;101089.00;;;;9785824;29;21504;-80
2023/05/15 00:18:01;;;;;;;97.13;49.80;;;;;9.50;101084.00;;;;9780686;29;20396;-79
2023/05/15 00:23:03;;;;;;;100.73;51.30;;;;;9.50;101078.00;;;;9793947;29;21654;-80
2023/05/15 00:28:04;;;;;;;110.90;53.33;;;;;9.40;101072.00;;;;9778264;29;20235;-80
2023/05/15 00:33:06;;;;;;;114.17;55.27;;;;;9.40;101070.00;;;;9772778;29;20228;-78
2023/05/15 00:38:08;;;;;;;107.80;53.27;;;;;9.40;101056.00;;;;9820634;29;20242;-80
2023/05/15 00:43:11;;;;;;;107.93;55.73;;;;;9.30;101055.00;;;;9810002;29;20904;-78
2023/05/15 00:48:13;;;;;;;101.40;52.20;;;;;9.30;101052.00;;;;9807926;29;20242;-79
2023/05/15 00:53:15;;;;;;;105.23;54.60;;;;;9.20;101048.00;;;;9785997;29;20254;-79
2023/05/15 00:58:20;;;;;;;102.40;53.03;;;;;9.30;101052.00;;;;9780180;29;20817;-80
2023/05/15 01:03:22;;;;;;;108.27;53.37;;;;;9.30;101049.00;;;;9791552;29;20858;-79
2023/05/15 01:08:34;;;;;;;103.37;51.13;;;;;9.20;101047.00;;;;9820519;29;20250;-77
2023/05/15 01:13:36;;;;;;;94.50;49.83;;;;;9.20;101034.00;;;;9782899;29;20409;-79
2023/05/15 01:18:39;;;;;;;92.63;50.87;;;;;9.30;101037.00;;;;9799200;29;20418;-79
2023/05/15 01:24:18;;;;;;;90.47;47.63;;;;;9.30;101045.00;;;;9815296;29;20235;-79
2023/05/15 01:29:35;;;;;;;93.43;51.10;;;;;9.30;101037.00;;;;9779954;29;20650;-79
2023/05/15 01:35:04;;;;;;;100.17;52.13;;;;;9.30;101045.00;;;;9811288;29;20246;-79
2023/05/15 01:40:09;;;;;;;100.97;52.10;;;;;9.40;101036.00;;;;9784210;29;20236;-79
2023/05/15 01:45:11;;;;;;;97.40;52.60;;;;;9.40;101040.00;;;;9765323;29;21350;-79
2023/05/15 01:50:14;;;;;;;90.40;49.53;;;;;9.40;101036.00;;;;9811398;29;20295;-79
2023/05/15 01:55:17;;;;;;;89.87;47.70;;;;;9.40;101034.00;;;;9780698;29;20244;-83
2023/05/15 02:00:20;;;;;;;99.70;50.23;;;;;9.40;101033.00;;;;9807661;29;20227;-81
2023/05/15 02:05:25;;;;;;;86.20;48.70;;;;;9.40;101035.00;;;;9793133;29;20253;-79
2023/05/15 02:10:28;;;;;;;84.70;45.43;;;;;9.40;101026.00;;;;9800999;29;20308;-78
2023/05/15 02:15:30;;;;;;;90.33;49.83;;;;;9.40;101038.00;;;;9805522;29;20251;-79
2023/05/15 02:20:31;;;;;;;89.93;49.73;;;;;9.50;101045.00;;;;9784209;29;20259;-79
2023/05/15 02:26:11;;;;;;;105.47;51.37;;;;;9.60;101039.00;;;;9779965;29;20295;-80
2023/05/15 02:31:34;;;;;;;100.30;52.90;;;;;9.60;101040.00;;;;9774158;29;20334;-80
2023/05/15 02:36:40;;;;;;;102.87;53.70;;;;;9.60;101042.00;;;;9790821;29;20320;-79
2023/05/15 02:41:45;;;;;;;114.50;56.77;;;;;9.50;101039.00;;;;9769921;29;20227;-79
2023/05/15 02:46:47;;;;;;;132.93;60.03;;;;;9.50;101032.00;;;;9815779;29;20227;-82
2023/05/15 02:51:49;;;;;;;128.40;61.67;;;;;9.50;101028.00;;;;9803997;29;21182;-81
2023/05/15 02:56:50;;;;;;;139.37;62.90;;;;;9.50;101028.00;;;;9771892;29;20260;-80
2023/05/15 03:01:52;;;;;;;151.80;69.90;;;;;9.50;101031.00;;;;9782783;29;22157;-78
2023/05/15 03:06:53;;;;;;;160.63;67.07;;;;;9.60;101017.00;;;;9765501;29;20335;-79
2023/05/15 03:11:55;;;;;;;159.90;73.13;;;;;9.50;101023.00;;;;9796559;29;20623;-79
2023/05/15 03:16:56;;;;;;;157.57;68.70;;;;;9.50;101024.00;;;;9768784;29;20645;-78
2023/05/15 03:21:57;;;;;;;136.33;63.70;;;;;9.50;101012.00;;;;9777598;29;20251;-79
2023/05/15 03:26:59;;;;;;;147.10;67.17;;;;;9.50;101013.00;;;;9790695;29;20259;-79
2023/05/15 03:32:00;;;;;;;150.67;66.97;;;;;9.60;101014.00;;;;9791384;29;20262;-78
2023/05/15 03:37:02;;;;;;;150.60;66.43;;;;;9.60;101014.00;;;;9791235;29;20364;-79
2023/05/15 03:42:03;;;;;;;101.33;49.57;;;;;9.60;101018.00;;;;9780941;29;21332;-81
2023/05/15 03:47:05;;;;;;;100.13;49.97;;;;;9.40;101021.00;;;;9785429;29;20737;-79
2023/05/15 03:52:07;;;;;;;122.93;56.00;;;;;9.50;101014.00;;;;9777690;29;20495;-79
2023/05/15 03:57:08;;;;;;;124.33;57.63;;;;;9.50;101006.00;;;;9806880;29;20235;-80
2023/05/15 04:02:09;;;;;;;143.87;62.67;;;;;9.50;101015.00;;;;9788052;29;20223;-78
2023/05/15 04:07:11;;;;;;;119.43;56.23;;;;;9.50;101017.00;;;;9788779;29;20398;-80
2023/05/15 04:12:12;;;;;;;144.60;59.93;;;;;9.40;101020.00;;;;9793638;29;20856;-80
2023/05/15 04:17:14;;;;;;;138.97;59.60;;;;;9.50;101020.00;;;;9794823;29;20235;-82
2023/05/15 04:22:15;;;;;;;148.80;62.60;;;;;9.50;101005.00;;;;9804212;29;20223;-83
2023/05/15 04:27:16;;;;;;;147.27;64.77;;;;;9.50;100998.00;;;;9805804;29;20227;-83
2023/05/15 04:32:18;;;;;;;143.60;65.80;;;;;9.60;100994.00;;;;9786691;29;20231;-83
2023/05/15 04:37:19;;;;;;;161.27;68.27;;;;;9.50;100993.00;;;;9800195;29;21082;-82
2023/05/15 04:42:20;;;;;;;187.80;73.93;;;;;9.50;100999.00;;;;9804615;29;20227;-82
2023/05/15 04:47:22;;;;;;;256.90;96.93;;;;;9.40;101000.00;;;;9786482;29;20360;-78
2023/05/15 04:52:23;;;;;;;295.63;109.43;;;;;9.50;101001.00;;;;9782066;29;20471;-81
2023/05/15 04:57:25;;;;;;;279.07;102.67;;;;;9.70;101010.00;;;;9797794;29;20650;-79
2023/05/15 05:02:26;;;;;;;270.30;99.80;;;;;9.80;101017.00;;;;9778619;29;21358;-78
2023/05/15 05:07:28;;;;;;;216.23;77.30;;;;;9.80;101024.00;;;;9776503;29;21670;-83
2023/05/15 05:12:29;;;;;;;208.30;80.87;;;;;9.80;101025.00;;;;9789449;29;20235;-82
2023/05/15 05:17:30;;;;;;;202.83;73.00;;;;;9.90;101021.00;;;;9784741;29;22006;-78
2023/05/15 05:22:32;;;;;;;179.47;69.33;;;;;9.90;101032.00;;;;9793442;29;20534;-78
2023/05/15 05:27:33;;;;;;;179.73;72.20;;;;;9.90;101033.00;;;;9792344;29;21475;-77
2023/05/15 05:32:35;;;;;;;145.07;59.90;;;;;10.20;101033.00;;;;9777233;29;20239;-78
2023/05/15 05:37:36;;;;;;;154.53;62.53;;;;;10.30;101028.00;;;;9808063;29;20354;-78
2023/05/15 05:42:41;;;;;;;148.57;60.97;;;;;10.30;101032.00;;;;9777616;29;20318;-77
2023/05/15 05:47:42;;;;;;;150.13;59.73;;;;;10.20;101031.00;;;;9808013;29;21628;-78
2023/05/15 05:52:43;;;;;;;120.47;49.60;;;;;10.10;101034.00;;;;9786048;29;20625;-78
2023/05/15 05:57:45;;;;;;;121.57;50.83;;;;;9.90;101035.00;;;;9777087;29;20254;-78
2023/05/15 06:02:46;;;;;;;131.20;55.00;;;;;10.00;101044.00;;;;9798591;29;20815;-78
2023/05/15 06:07:48;;;;;;;126.90;53.60;;;;;9.90;101042.00;;;;9812981;29;20224;-78
2023/05/15 06:12:49;;;;;;;150.60;60.93;;;;;10.00;101042.00;;;;9797138;29;20606;-79
2023/05/15 06:17:51;;;;;;;120.17;48.03;;;;;10.00;101047.00;;;;9766568;29;20247;-78
2023/05/15 06:22:52;;;;;;;110.73;46.47;;;;;10.10;101038.00;;;;9783624;29;20577;-78
2023/05/15 06:27:54;;;;;;;121.37;51.03;;;;;10.70;101038.00;;;;9798710;29;20227;-79
2023/05/15 06:32:55;;;;;;;111.93;46.03;;;;;11.10;101031.00;;;;9784830;29;20356;-77
2023/05/15 06:37:57;;;;;;;129.10;55.03;;;;;11.50;101025.00;;;;9786672;29;20248;-78
2023/05/15 06:42:59;;;;;;;154.30;60.60;;;;;11.90;101025.00;;;;9783715;29;20717;-78
2023/05/15 06:48:01;;;;;;;145.40;58.37;;;;;12.30;101029.00;;;;9800358;29;20223;-80
2023/05/15 06:53:03;;;;;;;141.07;58.73;;;;;12.70;101027.00;;;;9804790;29;20597;-78
2023/05/15 06:58:04;;;;;;;133.90;57.83;;;;;12.90;101019.00;;;;9803825;29;20581;-79
2023/05/15 07:03:05;;;;;;;122.40;54.50;;;;;13.40;101018.00;;;;9775733;29;20985;-80
2023/05/15 07:08:07;;;;;;;117.47;53.07;;;;;13.40;101016.00;;;;9815479;29;20223;-79
2023/05/15 07:13:08;;;;;;;104.90;50.57;;;;;12.90;101023.00;;;;9811289;29;20227;-78
2023/05/15 07:18:10;;;;;;;104.40;51.07;;;;;12.70;101013.00;;;;9781020;29;21073;-81
2023/05/15 07:23:11;;;;;;;108.73;51.30;;;;;12.70;101023.00;;;;9808938;29;20505;-84
2023/05/15 07:28:13;;;;;;;103.37;50.20;;;;;12.70;101020.00;;;;9809433;29;20240;-79
2023/05/15 07:33:14;;;;;;;95.40;48.27;;;;;13.00;101018.00;;;;9779605;29;20223;-79
2023/05/15 07:38:16;;;;;;;94.87;48.80;;;;;13.30;101019.00;;;;9823731;29;20249;-81
2023/05/15 07:43:17;;;;;;;89.87;48.23;;;;;14.00;101011.00;;;;9802246;29;20312;-79
2023/05/15 07:48:19;;;;;;;82.83;47.03;;;;;14.70;100998.00;;;;9810669;29;20239;-79
2023/05/15 07:53:20;;;;;;;84.80;47.87;;;;;15.30;100996.00;;;;9796116;29;20243;-79
2023/05/15 07:58:22;;;;;;;76.43;45.10;;;;;15.70;100985.00;;;;9794832;29;20243;-78
2023/05/15 08:03:23;;;;;;;78.85;45.85;;;;;15.40;100997.00;;;;9793227;29;20230;-78
2023/05/15 08:08:25;;;;;;;76.63;43.30;;;;;15.10;101000.00;;;;9791737;29;20847;-77
2023/05/15 08:13:26;;;;;;;73.80;44.63;;;;;15.10;100997.00;;;;9812287;29;20478;-78
2023/05/15 08:18:27;;;;;;;58.50;36.47;;;;;15.20;100995.00;;;;9798166;29;20239;-77
2023/05/15 08:23:29;;;;;;;63.40;39.83;;;;;15.50;100984.00;;;;9815728;29;20713;-79
2023/05/15 08:28:31;;;;;;;62.88;36.58;;;;;15.80;100993.00;;;;9800456;29;20234;-78
2023/05/15 08:33:32;;;;;;;63.30;41.30;;;;;16.30;100991.00;;;;9789235;29;20490;-79
2023/05/15 08:38:33;;;;;;;58.22;40.22;;;;;16.90;100988.00;;;;9790992;29;20259;-79
2023/05/15 08:43:37;;;;;;;58.95;39.05;;;;;17.20;100992.00;;;;9791786;29;20697;-79
2023/05/15 08:48:40;;;;;;;52.30;36.33;;;;;17.30;100991.00;;;;9797581;29;20246;-78
2023/05/15 08:53:42;;;;;;;48.65;35.60;;;;;17.50;100992.00;;;;9801004;29;21955;-82
2023/05/15 08:58:43;;;;;;;46.83;34.35;;;;;17.90;100985.00;;;;9825826;29;20283;-80
2023/05/15 09:03:45;;;;;;;49.47;31.90;;;;;18.60;100997.00;;;;9812922;29;20223;-85
2023/05/15 09:08:48;;;;;;;48.05;32.40;;;;;18.00;100990.00;;;;9802695;29;20938;-78
2023/05/15 09:13:50;;;;;;;48.70;35.72;;;;;17.70;100992.00;;;;9786293;29;21228;-79
2023/05/15 09:18:52;;;;;;;50.13;35.78;;;;;18.20;100979.00;;;;9795674;29;21014;-82
2023/05/15 09:24:23;;;;;;;46.33;32.72;;;;;18.90;100977.00;;;;9814952;29;20230;-77
2023/05/15 09:29:26;;;;;;;51.03;35.50;;;;;18.60;100985.00;;;;9796850;29;20940;-77
2023/05/15 09:34:29;;;;;;;48.15;36.45;;;;;19.60;100987.00;;;;9811584;29;20232;-78
2023/05/15 09:39:32;;;;;;;44.03;33.30;;;;;20.60;100990.00;;;;9832591;29;20942;-81
2023/05/15 09:44:34;;;;;;;46.33;35.28;;;;;19.80;100995.00;;;;9813463;29;21489;-82
2023/05/15 09:49:35;;;;;;;42.78;32.10;;;;;20.00;100985.00;;;;9820115;29;20222;-80
2023/05/15 09:54:37;;;;;;;39.13;28.25;;;;;20.30;100987.00;;;;9801237;29;20365;-79
2023/05/15 09:59:44;;;;;;;40.72;31.75;;;;;20.10;100988.00;;;;9800687;29;21753;-80
2023/05/15 10:04:52;;;;;;;43.03;31.50;;;;;21.30;100979.00;;;;9780367;29;20227;-80
2023/05/15 10:09:54;;;;;;;44.83;33.25;;;;;21.90;100985.00;;;;9806254;29;20231;-80
2023/05/15 10:14:57;;;;;;;37.28;28.88;;;;;23.20;100983.00;;;;9799398;29;20290;-78
2023/05/15 10:20:01;;;;;;;38.97;30.17;;;;;22.30;100998.00;;;;9823538;29;20219;-79
2023/05/15 10:25:32;;;;;;;39.65;30.70;;;;;21.40;100993.00;;;;9806731;29;20235;-80
2023/05/15 10:30:34;;;;;;;40.35;29.48;;;;;21.30;101007.00;;;;9811265;29;20290;-81
2023/05/15 10:35:38;;;;;;;43.60;32.28;;;;;20.30;100993.00;;;;9822405;29;20247;-83
2023/05/15 10:40:40;;;;;;;49.72;33.60;;;;;19.40;101003.00;;;;9810704;29;20223;-80
2023/05/15 10:45:42;;;;;;;46.55;33.33;;;;;19.20;100993.00;;;;9825848;29;20293;-80
2023/05/15 10:50:44;;;;;;;48.50;33.13;;;;;19.20;101002.00;;;;9822547;29;20527;-80
2023/05/15 10:55:48;;;;;;;51.58;33.42;;;;;18.70;100994.00;;;;9805605;29;20235;-81
2023/05/15 11:00:50;;;;;;;46.13;31.02;;;;;18.50;101001.00;;;;9819907;29;20220;-79
2023/05/15 11:06:11;;;;;;;51.25;33.20;;;;;19.00;100996.00;;;;9807515;29;20223;-80
2023/05/15 11:11:53;;;;;;;55.40;32.63;;;;;18.40;100993.00;;;;9809028;29;20211;-81
2023/05/15 11:16:56;;;;;;;53.97;31.75;;;;;17.70;101002.00;;;;9821656;29;20684;-81
2023/05/15 11:21:58;;;;;;;58.75;34.60;;;;;17.00;101021.00;;;;9797812;29;20837;-79
2023/05/15 11:27:01;;;;;;;58.40;35.88;;;;;17.30;101017.00;;;;9825812;29;20750;-81
2023/05/15 11:32:23;;;;;;;57.35;31.60;;;;;17.40;101011.00;;;;9798669;29;20236;-81
2023/05/15 11:37:24;;;;;;;85.45;41.78;;;;;17.30;101011.00;;;;9826434;29;20251;-80
2023/05/15 11:42:26;;;;;;;108.18;51.08;;;;;17.80;101009.00;;;;9804294;29;20229;-79
2023/05/15 11:47:28;;;;;;;107.25;51.33;;;;;18.20;101004.00;;;;9825399;29;20842;-79
2023/05/15 11:52:30;;;;;;;105.85;49.55;;;;;17.70;101010.00;;;;9825156;29;20250;-80
2023/05/15 11:57:31;;;;;;;114.80;51.55;;;;;17.60;101009.00;;;;9806170;29;20286;-79
2023/05/15 12:02:32;;;;;;;99.03;48.03;;;;;17.20;101011.00;;;;9801220;29;20231;-80
2023/05/15 12:07:39;;;;;;;102.30;47.08;;;;;17.10;101017.00;;;;9816376;29;20358;-80
2023/05/15 12:12:42;;;;;;;104.43;48.70;;;;;17.60;101017.00;;;;9802130;29;20242;-80
2023/05/15 12:17:44;;;;;;;94.20;44.83;;;;;16.80;101022.00;;;;9782939;29;20756;-79
2023/05/15 12:22:46;;;;;;;85.72;44.50;;;;;15.90;101024.00;;;;9800279;29;20258;-79
2023/05/15 12:27:47;;;;;;;90.53;42.35;;;;;15.30;101037.00;;;;9786225;29;20730;-80
2023/05/15 12:32:49;;;;;;;82.07;43.10;;;;;15.30;101056.00;;;;9788187;29;20234;-78
2023/05/15 12:37:50;;;;;;;86.70;44.33;;;;;15.50;101060.00;;;;9788644;29;20855;-79
2023/05/15 12:42:53;;;;;;;90.23;44.53;;;;;15.30;101065.00;;;;9792231;29;20222;-80
2023/05/15 12:47:57;;;;;;;87.20;42.33;;;;;14.80;101073.00;;;;9790870;29;20243;-80
2023/05/15 12:53:03;;;;;;;84.97;42.87;;;;;14.50;101080.00;;;;9776040;29;20247;-79
2023/05/15 12:58:08;;;;;;;51.43;27.43;;;;;14.40;101087.00;;;;9814335;29;21002;-78
2023/05/15 13:03:11;;;;;;;40.23;23.87;;;;;14.10;101100.00;;;;9804034;29;20223;-79
2023/05/15 13:08:15;;;;;;;39.07;21.17;;;;;13.70;101101.00;;;;9788508;29;20312;-80
2023/05/15 13:13:17;;;;;;;34.83;21.27;;;;;13.40;101116.00;;;;9763959;29;20234;-79
2023/05/15 13:18:18;;;;;;;23.00;13.87;;;;;13.10;101125.00;;;;9821333;29;20243;-78
2023/05/15 13:23:23;;;;;;;9.37;6.40;;;;;12.90;101117.00;;;;9793632;29;21859;-79
2023/05/15 13:28:24;;;;;;;8.23;4.60;;;;;12.80;101123.00;;;;9807015;29;20283;-79
2023/05/15 13:33:26;;;;;;;4.23;2.73;;;;;13.30;101130.00;;;;9822776;29;20899;-80
2023/05/15 13:38:27;;;;;;;4.27;2.30;;;;;13.10;101129.00;;;;9778664;29;20243;-79
2023/05/15 13:43:29;;;;;;;2.73;2.17;;;;;13.50;101132.00;;;;9796990;29;21674;-81
2023/05/15 13:48:31;;;;;;;8.47;2.40;;;;;13.50;101130.00;;;;9808620;29;20936;-79
2023/05/15 13:53:33;;;;;;;3.43;1.93;;;;;13.80;101132.00;;;;9792445;29;20399;-78
2023/05/15 13:58:34;;;;;;;2.17;1.90;;;;;13.90;101132.00;;;;9821989;29;20246;-78
2023/05/15 14:03:36;;;;;;;4.87;2.00;;;;;13.40;101127.00;;;;9819405;29;20215;-80
2023/05/15 14:08:37;;;;;;;6.17;2.03;;;;;12.90;101121.00;;;;9804361;29;20231;-79
2023/05/15 14:13:41;;;;;;;3.63;2.57;;;;;12.60;101130.00;;;;9807577;29;20598;-78
2023/05/15 14:18:42;;;;;;;6.17;2.90;;;;;12.40;101123.00;;;;9783547;29;21077;-79
2023/05/15 14:23:43;;;;;;;7.97;2.67;;;;;12.20;101132.00;;;;9795662;29;20224;-77
2023/05/15 14:28:45;;;;;;;5.23;2.53;;;;;12.00;101136.00;;;;9790434;29;20232;-77
2023/05/15 14:33:47;;;;;;;7.33;2.70;;;;;12.60;101124.00;;;;9800551;29;20219;-78
2023/05/15 14:38:51;;;;;;;6.87;4.10;;;;;12.50;101130.00;;;;9793979;29;20247;-77
2023/05/15 14:43:53;;;;;;;9.40;3.60;;;;;12.20;101135.00;;;;9782625;29;20235;-77
2023/05/15 14:48:54;;;;;;;8.40;3.77;;;;;12.10;101129.00;;;;9779607;29;20246;-77
2023/05/15 14:53:56;;;;;;;9.37;3.83;;;;;11.80;101134.00;;;;9778445;29;20243;-77
2023/05/15 14:58:57;;;;;;;6.53;3.60;;;;;11.60;101137.00;;;;9807267;29;20247;-74
2023/05/15 15:03:59;;;;;;;6.27;4.03;;;;;11.60;101139.00;;;;9830034;29;20491;-78
2023/05/15 15:09:01;;;;;;;9.73;4.27;;;;;11.80;101146.00;;;;9816728;29;20282;-78
2023/05/15 15:14:02;;;;;;;8.80;3.77;;;;;12.10;101145.00;;;;9818988;29;20740;-80
2023/05/15 15:19:04;;;;;;;10.67;3.80;;;;;11.90;101155.00;;;;9834783;29;20580;-77
2023/05/15 15:24:06;;;;;;;7.67;3.87;;;;;11.60;101153.00;;;;9828268;29;20223;-78
2023/05/15 15:29:07;;;;;;;9.60;4.83;;;;;11.70;101146.00;;;;9818837;29;20254;-82
2023/05/15 15:34:10;;;;;;;10.70;5.00;;;;;12.20;101148.00;;;;9819408;29;21244;-80
2023/05/15 15:39:11;;;;;;;11.67;4.53;;;;;12.00;101150.00;;;;9823517;29;20250;-77
2023/05/15 15:44:13;;;;;;;9.57;4.53;;;;;12.00;101152.00;;;;9824560;29;20224;-74
2023/05/15 15:49:14;;;;;;;12.07;5.07;;;;;11.90;101162.00;;;;9807806;29;20223;-77
2023/05/15 15:54:16;;;;;;;10.80;5.40;;;;;11.70;101151.00;;;;9808069;29;20958;-74
2023/05/15 15:59:17;;;;;;;10.43;5.07;;;;;11.80;101145.00;;;;9772042;29;20232;-73
2023/05/15 16:04:18;;;;;;;9.83;4.23;;;;;11.90;101142.00;;;;9802772;29;20525;-74
2023/05/15 16:09:20;;;;;;;9.47;4.43;;;;;11.70;101150.00;;;;9831728;29;20212;-76
2023/05/15 16:14:22;;;;;;;12.33;5.37;;;;;11.60;101148.00;;;;9810334;29;20226;-75
2023/05/15 16:19:23;;;;;;;8.80;4.57;;;;;11.40;101143.00;;;;9822318;29;20296;-74
2023/05/15 16:24:25;;;;;;;8.70;4.40;;;;;11.50;101155.00;;;;9824667;29;21860;-74
2023/05/15 16:29:27;;;;;;;11.40;5.37;;;;;11.70;101162.00;;;;9823174;29;20240;-74
2023/05/15 16:34:28;;;;;;;10.03;4.90;;;;;11.60;101156.00;;;;9807308;29;20330;-75
2023/05/15 16:39:37;;;;;;;9.73;4.50;;;;;11.50;101157.00;;;;9820572;29;20231;-74
2023/05/15 16:44:38;;;;;;;8.10;4.20;;;;;11.40;101156.00;;;;9806231;29;20346;-75
2023/05/15 16:49:40;;;;;;;9.67;4.67;;;;;11.30;101153.00;;;;9822666;29;20239;-75
2023/05/15 16:54:45;;;;;;;13.33;5.50;;;;;11.20;101166.00;;;;9823402;29;20223;-74
2023/05/15 16:59:46;;;;;;;8.83;4.03;;;;;11.20;101170.00;;;;9822230;29;21884;-74
2023/05/15 17:04:48;;;;;;;8.53;4.43;;;;;10.90;101174.00;;;;9819545;29;20215;-74
2023/05/15 17:09:49;;;;;;;9.33;3.90;;;;;10.70;101179.00;;;;9804774;29;20223;-74
2023/05/15 17:14:50;;;;;;;8.20;3.30;;;;;10.70;101190.00;;;;9836451;29;20257;-80
2023/05/15 17:19:53;;;;;;;6.87;4.30;;;;;10.70;101182.00;;;;9823560;29;21953;-78
2023/05/15 17:24:55;;;;;;;8.37;3.43;;;;;10.70;101174.00;;;;9792605;29;20235;-75
2023/05/15 17:29:56;;;;;;;10.83;3.73;;;;;10.60;101190.00;;;;9820589;29;20228;-75
2023/05/15 17:34:58;;;;;;;10.97;4.00;;;;;10.70;101188.00;;;;9817036;29;20304;-74
2023/05/15 17:39:59;;;;;;;13.33;3.53;;;;;10.60;101188.00;;;;9816855;29;22339;-74
2023/05/15 17:45:02;;;;;;;17.17;4.50;;;;;10.60;101195.00;;;;9802709;29;20254;-76
2023/05/15 17:50:03;;;;;;;9.00;4.27;;;;;10.50;101193.00;;;;9819391;29;21854;-73
2023/05/15 17:55:05;;;;;;;14.13;3.83;;;;;10.50;101198.00;;;;9808986;29;20243;-76
2023/05/15 18:00:08;;;;;;;14.10;3.80;;;;;10.50;101215.00;;;;9848686;29;20212;-79
2023/05/15 18:05:14;;;;;;;10.37;4.23;;;;;10.40;101224.00;;;;9834312;29;20230;-81
2023/05/15 18:10:16;;;;;;;13.50;3.67;;;;;10.30;101215.00;;;;9835890;29;20621;-76
2023/05/15 18:15:18;;;;;;;15.17;4.70;;;;;10.30;101222.00;;;;9824155;29;20231;-79
2023/05/15 18:20:20;;;;;;;14.47;4.60;;;;;10.30;101230.00;;;;9830184;29;21595;-81
2023/05/15 18:25:21;;;;;;;11.17;4.23;;;;;10.20;101230.00;;;;9850762;29;20242;-77
2023/05/15 18:30:23;;;;;;;11.80;4.13;;;;;10.20;101242.00;;;;9825633;29;20286;-74
2023/05/15 18:35:24;;;;;;;11.10;3.63;;;;;10.10;101236.00;;;;9805572;29;20250;-74
2023/05/15 18:40:26;;;;;;;14.93;3.80;;;;;10.10;101242.00;;;;9822457;29;21722;-76
2023/05/15 18:45:27;;;;;;;13.10;4.40;;;;;10.00;101255.00;;;;9824231;29;20894;-76
2023/05/15 18:50:29;;;;;;;15.20;3.90;;;;;10.10;101245.00;;;;9807357;29;21991;-76
2023/05/15 18:55:31;;;;;;;13.97;4.20;;;;;10.10;101263.00;;;;9822512;29;20250;-76
2023/05/15 19:00:33;;;;;;;16.57;3.43;;;;;10.10;101260.00;;;;9810746;29;20258;-74
2023/05/15 19:05:40;;;;;;;15.50;3.43;;;;;10.00;101256.00;;;;9793810;29;20888;-74
2023/05/15 19:10:49;;;;;;;14.63;4.33;;;;;10.00;101278.00;;;;9823536;29;20743;-75
2023/05/15 19:15:51;;;;;;;10.37;3.40;;;;;10.00;101279.00;;;;9790277;29;21007;-75
2023/05/15 19:20:53;;;;;;;11.87;3.40;;;;;10.00;101281.00;;;;9822588;29;20223;-74
2023/05/15 19:25:54;;;;;;;12.50;3.83;;;;;10.00;101296.00;;;;9806607;29;20224;-75
2023/05/15 19:30:55;;;;;;;15.20;3.83;;;;;10.00;101302.00;;;;9805748;29;20373;-75
2023/05/15 19:35:57;;;;;;;12.43;3.97;;;;;10.00;101303.00;;;;9824173;29;20366;-75
2023/05/15 19:40:58;;;;;;;16.47;4.43;;;;;10.00;101301.00;;;;9809581;29;20231;-76
2023/05/15 19:46:00;;;;;;;12.30;3.07;;;;;10.00;101317.00;;;;9806445;29;20255;-76
2023/05/15 19:51:02;;;;;;;12.03;3.93;;;;;10.00;101313.00;;;;9822996;29;20236;-76
2023/05/15 19:56:04;;;;;;;13.90;3.40;;;;;10.00;101317.00;;;;9823694;29;21840;-77
2023/05/15 20:01:06;;;;;;;10.80;3.20;;;;;10.00;101331.00;;;;9821653;29;20216;-76
2023/05/15 20:06:09;;;;;;;11.97;3.53;;;;;10.00;101339.00;;;;9808076;29;20246;-77
2023/05/15 20:11:10;;;;;;;13.50;3.53;;;;;9.90;101339.00;;;;9780880;29;20242;-77
2023/05/15 20:16:12;;;;;;;12.00;4.23;;;;;9.90;101352.00;;;;9826491;29;20243;-78
2023/05/15 20:21:14;;;;;;;13.23;3.10;;;;;9.90;101359.00;;;;9825031;29;20227;-77
2023/05/15 20:26:17;;;;;;;14.83;3.50;;;;;9.90;101363.00;;;;9830605;29;20230;-77
2023/05/15 20:31:19;;;;;;;13.37;2.73;;;;;9.90;101360.00;;;;9834956;29;20778;-76
2023/05/15 20:36:24;;;;;;;23.87;4.53;;;;;10.00;101365.00;;;;9813615;29;20243;-77
2023/05/15 20:41:25;;;;;;;9.40;2.87;;;;;10.00;101364.00;;;;9824658;29;20848;-78
2023/05/15 20:46:28;;;;;;;16.50;3.50;;;;;10.00;101360.00;;;;9825181;29;20230;-77
2023/05/15 20:51:31;;;;;;;14.37;2.93;;;;;10.00;101347.00;;;;9807287;29;20274;-77
2023/05/15 20:56:32;;;;;;;19.80;4.07;;;;;10.00;101358.00;;;;9791791;29;20468;-78
2023/05/15 21:01:34;;;;;;;9.77;3.30;;;;;9.90;101349.00;;;;9793546;29;20776;-77
2023/05/15 21:06:35;;;;;;;11.70;2.87;;;;;9.90;101352.00;;;;9820782;29;21202;-77
2023/05/15 21:11:37;;;;;;;10.23;2.97;;;;;9.90;101351.00;;;;9823224;29;20220;-77
2023/05/15 21:16:39;;;;;;;9.87;2.93;;;;;9.90;101361.00;;;;9823049;29;20353;-77
2023/05/15 21:21:41;;;;;;;13.83;2.67;;;;;9.90;101368.00;;;;9804315;29;20252;-77
2023/05/15 21:26:42;;;;;;;15.77;3.37;;;;;9.90;101367.00;;;;9821301;29;20231;-77
2023/05/15 21:31:43;;;;;;;12.80;2.80;;;;;9.90;101374.00;;;;9793394;29;20350;-77
2023/05/15 21:36:44;;;;;;;12.60;3.03;;;;;9.90;101377.00;;;;9825156;29;20359;-76
2023/05/15 21:41:46;;;;;;;9.70;2.80;;;;;9.90;101386.00;;;;9827273;29;21188;-78
2023/05/15 21:46:48;;;;;;;14.77;3.40;;;;;9.90;101377.00;;;;9811856;29;20215;-75
2023/05/15 21:51:49;;;;;;;10.57;2.47;;;;;9.90;101387.00;;;;9809312;29;20262;-75
2023/05/15 21:56:51;;;;;;;10.07;2.53;;;;;9.90;101377.00;;;;9825525;29;20248;-75
2023/05/15 22:01:52;;;;;;;7.37;2.43;;;;;9.90;101388.00;;;;9826947;29;20285;-80
2023/05/15 22:06:54;;;;;;;10.20;2.33;;;;;9.80;101390.00;;;;9817238;29;20285;-83
2023/05/15 22:11:55;;;;;;;7.10;1.83;;;;;9.80;101395.00;;;;9815792;29;20235;-76
2023/05/15 22:16:56;;;;;;;11.63;2.80;;;;;9.80;101400.00;;;;9801543;29;20236;-75
2023/05/15 22:21:59;;;;;;;9.90;2.40;;;;;9.80;101395.00;;;;9808413;29;20223;-74
2023/05/15 22:27:01;;;;;;;17.83;3.17;;;;;9.70;101392.00;;;;9797265;29;20231;-75
2023/05/15 22:32:02;;;;;;;20.87;3.13;;;;;9.70;101395.00;;;;9807671;29;20223;-75
2023/05/15 22:37:03;;;;;;;16.13;3.37;;;;;9.70;101389.00;;;;9810895;29;20235;-75
2023/05/15 22:42:06;;;;;;;14.00;2.40;;;;;9.70;101399.00;;;;9812846;29;20326;-77
2023/05/15 22:47:07;;;;;;;8.80;2.27;;;;;9.70;101407.00;;;;9830626;29;20220;-75
2023/05/15 22:52:08;;;;;;;11.37;2.73;;;;;9.70;101403.00;;;;9815048;29;21889;-76
2023/05/15 22:57:13;;;;;;;10.30;2.80;;;;;9.60;101403.00;;;;9829676;29;20240;-76
2023/05/15 23:02:15;;;;;;;10.00;2.70;;;;;9.60;101394.00;;;;9811296;29;20228;-75
2023/05/15 23:07:16;;;;;;;12.17;2.80;;;;;9.40;101405.00;;;;9810416;29;20778;-75
2023/05/15 23:12:18;;;;;;;11.27;2.73;;;;;9.20;101414.00;;;;9811598;29;22056;-76
2023/05/15 23:17:19;;;;;;;7.53;2.67;;;;;9.00;101408.00;;;;9813835;29;20243;-81
2023/05/15 23:22:21;;;;;;;11.57;2.27;;;;;8.90;101418.00;;;;9819373;29;20323;-83
2023/05/15 23:27:22;;;;;;;14.00;2.40;;;;;8.70;101417.00;;;;9816415;29;20315;-80
2023/05/15 23:32:24;;;;;;;9.67;2.90;;;;;8.70;101421.00;;;;9830503;29;20369;-75
2023/05/15 23:37:25;;;;;;;16.03;2.67;;;;;8.60;101423.00;;;;9794787;29;20247;-78
2023/05/15 23:42:28;;;;;;;12.33;2.63;;;;;8.50;101429.00;;;;9804289;29;20538;-77
2023/05/15 23:47:30;;;;;;;16.07;2.83;;;;;8.40;101428.00;;;;9810374;29;20251;-75
2023/05/15 23:52:31;;;;;;;15.90;2.30;;;;;8.30;101436.00;;;;9781828;29;20247;-75
2023/05/15 23:57:33;;;;;;;18.50;3.30;;;;;8.30;101444.00;;;;9803963;29;20986;-76
